createdAt,value
2019-05-16T00:00:16.204Z,11.00
2019-05-16T00:05:23.889Z,11.00
2019-05-16T00:10:28.490Z,10.90
2019-05-16T00:15:33.445Z,10.80
2019-05-16T00:20:39.601Z,10.80
2019-05-16T00:25:47.704Z,10.70
2019-05-16T00:30:53.621Z,10.60
2019-05-16T00:36:05.664Z,10.50
2019-05-16T00:41:10.741Z,10.40
2019-05-16T00:46:15.613Z,10.30
2019-05-16T00:51:20.304Z,10.30
2019-05-16T00:56:26.281Z,10.20
2019-05-16T01:01:34.285Z,10.20
2019-05-16T01:06:38.977Z,10.20
2019-05-16T01:11:44.276Z,10.20
2019-05-16T01:16:48.923Z,10.10
2019-05-16T01:21:53.695Z,10.10
2019-05-16T01:26:58.186Z,10.00
2019-05-16T01:32:02.576Z,10.00
2019-05-16T01:37:08.317Z,9.90
2019-05-16T01:42:14.254Z,9.90
2019-05-16T01:47:18.858Z,9.80
2019-05-16T01:52:23.536Z,9.80
2019-05-16T01:57:28.301Z,9.70
2019-05-16T02:02:33.425Z,9.60
2019-05-16T02:07:44.699Z,9.60
2019-05-16T02:12:49.254Z,9.50
2019-05-16T02:17:53.769Z,9.50
2019-05-16T02:22:59.749Z,9.40
2019-05-16T02:28:04.396Z,9.30
2019-05-16T02:33:11.639Z,9.30
2019-05-16T02:38:16.680Z,9.20
2019-05-16T02:43:26.096Z,9.10
2019-05-16T02:48:31.732Z,9.00
2019-05-16T02:53:34.813Z,8.90
2019-05-16T02:58:44.198Z,8.90
2019-05-16T03:03:45.687Z,8.80
2019-05-16T03:08:50.763Z,8.70
2019-05-16T03:13:56.916Z,8.70
2019-05-16T03:19:05.454Z,8.60
2019-05-16T03:24:11.538Z,8.60
2019-05-16T03:29:17.803Z,8.50
2019-05-16T03:34:25.196Z,8.40
2019-05-16T03:39:31.339Z,8.30
2019-05-16T03:44:36.073Z,8.30
2019-05-16T03:49:43.384Z,8.30
2019-05-16T03:54:50.548Z,8.30
2019-05-16T03:59:55.849Z,8.20
2019-05-16T04:05:01.675Z,8.20
2019-05-16T04:10:11.482Z,8.10
2019-05-16T04:15:16.374Z,8.10
2019-05-16T04:20:21.688Z,8.10
2019-05-16T04:25:27.265Z,8.10
2019-05-16T04:30:34.628Z,8.10
2019-05-16T04:35:41.159Z,8.10
2019-05-16T04:40:45.680Z,8.10
2019-05-16T04:45:52.224Z,8.10
2019-05-16T04:51:01.012Z,8.20
2019-05-16T04:56:04.144Z,8.20
2019-05-16T05:01:11.698Z,8.20
2019-05-16T05:06:26.707Z,8.30
2019-05-16T05:11:33.145Z,8.40
2019-05-16T05:16:37.682Z,8.40
2019-05-16T05:22:01.663Z,8.50
2019-05-16T05:27:06.130Z,8.50
2019-05-16T05:32:14.319Z,8.60
2019-05-16T05:37:20.426Z,8.60
2019-05-16T05:42:24.771Z,8.70
2019-05-16T05:47:30.713Z,8.80
2019-05-16T05:52:35.752Z,8.90
2019-05-16T05:57:40.707Z,9.10
2019-05-16T06:02:46.931Z,9.20
2019-05-16T06:07:51.319Z,9.40
2019-05-16T06:12:55.724Z,9.60
2019-05-16T06:18:00.382Z,9.80
2019-05-16T06:28:10.440Z,10.00
2019-05-16T06:33:14.453Z,10.10
2019-05-16T06:38:21.092Z,10.20
2019-05-16T06:43:25.809Z,10.50
2019-05-16T06:48:30.537Z,10.60
2019-05-16T06:53:35.159Z,10.80
2019-05-16T06:58:47.613Z,10.80
2019-05-16T07:03:45.647Z,10.90
2019-05-16T07:08:50.768Z,11.10
2019-05-16T07:13:55.490Z,11.10
2019-05-16T07:19:00.817Z,11.20
2019-05-16T07:24:05.588Z,11.30
2019-05-16T07:29:10.978Z,11.50
2019-05-16T07:34:15.690Z,11.60
2019-05-16T07:39:20.161Z,11.90
2019-05-16T07:49:27.335Z,12.40
2019-05-16T07:54:34.641Z,12.50
2019-05-16T07:59:37.918Z,12.70
2019-05-16T08:04:42.504Z,12.80
2019-05-16T08:09:46.902Z,12.80
2019-05-16T08:14:51.369Z,13.00
2019-05-16T08:19:55.791Z,13.10
2019-05-16T08:25:00.408Z,13.20
2019-05-16T08:30:07.422Z,13.30
2019-05-16T08:35:12.284Z,13.40
2019-05-16T08:40:21.057Z,13.60
2019-05-16T08:45:23.473Z,13.70
2019-05-16T08:50:27.859Z,13.80
2019-05-16T08:55:32.253Z,13.80
2019-05-16T09:00:36.621Z,14.00
2019-05-16T09:05:42.954Z,14.10
2019-05-16T09:10:59.067Z,14.30
2019-05-16T09:16:04.420Z,14.30
2019-05-16T09:21:08.812Z,14.20
2019-05-16T09:26:16.183Z,14.10
2019-05-16T09:31:19.365Z,14.20
2019-05-16T09:36:23.772Z,14.10
2019-05-16T09:41:46.348Z,14.10
2019-05-16T09:46:34.504Z,14.20
2019-05-16T09:51:39.223Z,14.10
2019-05-16T09:56:43.709Z,14.00
2019-05-16T10:01:48.307Z,13.90
2019-05-16T10:06:52.724Z,14.00
2019-05-16T10:12:08.077Z,14.00
2019-05-16T10:17:03.886Z,14.10
2019-05-16T10:22:08.338Z,14.40
2019-05-16T10:27:12.993Z,14.80
2019-05-16T10:32:17.445Z,15.00
2019-05-16T10:37:21.838Z,15.00
2019-05-16T10:42:28.958Z,15.20
2019-05-16T10:47:33.225Z,15.40
2019-05-16T10:52:37.831Z,15.70
2019-05-16T10:57:42.456Z,16.00
2019-05-16T11:02:46.984Z,16.60
2019-05-16T11:07:53.350Z,16.70
2019-05-16T11:12:59.735Z,16.70
2019-05-16T11:18:03.812Z,16.90
2019-05-16T11:23:09.501Z,16.60
2019-05-16T11:28:13.908Z,16.30
2019-05-16T11:33:18.295Z,16.50
2019-05-16T11:38:22.736Z,16.70
2019-05-16T11:43:27.840Z,16.80
2019-05-16T11:48:32.430Z,16.50
2019-05-16T11:53:37.846Z,16.50
2019-05-16T11:58:42.862Z,16.20
2019-05-16T12:03:47.240Z,16.10
2019-05-16T12:08:52.172Z,15.70
2019-05-16T12:13:56.813Z,15.60
2019-05-16T12:19:01.338Z,15.50
2019-05-16T12:24:07.451Z,15.50
2019-05-16T12:29:12.087Z,15.60
2019-05-16T12:34:16.484Z,15.70
2019-05-16T12:39:20.940Z,15.50
2019-05-16T12:44:26.893Z,15.60
2019-05-16T12:49:31.624Z,16.00
2019-05-16T12:54:37.052Z,16.30
2019-05-16T12:59:49.204Z,16.50
2019-05-16T13:04:48.069Z,16.60
2019-05-16T13:09:52.530Z,17.40
2019-05-16T13:14:56.905Z,18.10
2019-05-16T13:20:01.559Z,18.90
2019-05-16T13:25:08.203Z,19.60
2019-05-16T13:30:13.676Z,19.90
2019-05-16T13:35:18.290Z,20.00
2019-05-16T13:40:22.839Z,20.00
2019-05-16T13:45:27.537Z,19.80
2019-05-16T13:50:36.541Z,20.00
2019-05-16T13:55:40.921Z,20.40
2019-05-16T14:00:48.083Z,20.70
2019-05-16T14:05:51.779Z,21.00
2019-05-16T14:11:01.755Z,21.10
2019-05-16T14:16:02.273Z,20.60
2019-05-16T14:21:06.966Z,20.60
2019-05-16T14:26:11.750Z,20.60
2019-05-16T14:31:17.429Z,20.70
2019-05-16T14:36:22.064Z,20.20
2019-05-16T14:41:27.930Z,20.30
2019-05-16T14:46:32.501Z,20.50
2019-05-16T14:51:38.598Z,20.50
2019-05-16T14:56:47.319Z,20.40
2019-05-16T15:01:50.499Z,20.80
2019-05-16T15:06:57.210Z,20.90
2019-05-16T15:12:01.064Z,20.90
2019-05-16T15:17:06.991Z,20.40
2019-05-16T15:22:13.124Z,20.00
2019-05-16T15:27:17.484Z,19.70
2019-05-16T15:32:21.898Z,19.60
2019-05-16T15:37:27.381Z,19.40
2019-05-16T15:42:31.952Z,19.20
2019-05-16T15:47:37.743Z,18.90
2019-05-16T15:52:43.558Z,18.90
2019-05-16T15:57:47.946Z,18.90
2019-05-16T16:02:53.774Z,18.70
2019-05-16T16:07:58.327Z,18.70
2019-05-16T16:13:02.849Z,18.60
2019-05-16T16:18:09.103Z,18.60
2019-05-16T16:23:13.842Z,18.70
2019-05-16T16:28:18.296Z,18.60
2019-05-16T16:33:29.087Z,18.30
2019-05-16T16:38:28.909Z,18.10
2019-05-16T16:43:33.368Z,17.90
2019-05-16T16:48:37.835Z,17.80
2019-05-16T16:53:42.460Z,17.80
2019-05-16T16:58:46.971Z,17.80
2019-05-16T17:03:54.549Z,18.00
2019-05-16T17:08:57.700Z,18.00
2019-05-16T17:14:02.171Z,17.90
2019-05-16T17:19:07.674Z,17.80
2019-05-16T17:24:12.339Z,17.70
2019-05-16T17:29:17.146Z,17.60
2019-05-16T17:34:21.798Z,17.50
2019-05-16T17:39:27.479Z,17.60
2019-05-16T17:44:38.387Z,17.60
2019-05-16T17:49:42.965Z,17.50
2019-05-16T17:54:47.466Z,17.40
2019-05-16T17:59:51.859Z,17.30
2019-05-16T18:04:56.755Z,17.20
2019-05-16T18:10:01.315Z,17.40
2019-05-16T18:15:08.574Z,17.30
2019-05-16T18:20:13.410Z,17.00
2019-05-16T18:25:18.038Z,16.70
2019-05-16T18:30:27.112Z,16.40
2019-05-16T18:35:31.654Z,16.30
2019-05-16T18:40:36.769Z,16.20
2019-05-16T18:45:41.692Z,16.10
2019-05-16T18:50:47.722Z,16.00
2019-05-16T18:55:52.431Z,16.00
2019-05-16T19:00:57.042Z,15.80
2019-05-16T19:06:03.050Z,15.70
2019-05-16T19:11:07.801Z,15.60
2019-05-16T19:16:13.304Z,15.30
2019-05-16T19:21:19.175Z,15.10
2019-05-16T19:26:31.706Z,15.00
2019-05-16T19:31:50.235Z,14.90
2019-05-16T19:37:02.036Z,14.70
2019-05-16T19:42:17.124Z,14.70
2019-05-16T19:47:34.997Z,14.60
2019-05-16T19:52:47.183Z,14.50
2019-05-16T19:57:59.527Z,14.40
2019-05-16T20:03:07.774Z,14.20
2019-05-16T20:08:13.781Z,14.10
2019-05-16T20:13:20.220Z,14.00
2019-05-16T20:18:31.497Z,13.90
2019-05-16T20:23:39.906Z,13.70
2019-05-16T20:28:47.485Z,13.60
2019-05-16T20:34:00.691Z,13.40
2019-05-16T20:39:09.915Z,13.40
2019-05-16T20:44:28.244Z,13.30
2019-05-16T20:55:17.528Z,13.10
2019-05-16T21:00:26.825Z,13.00
2019-05-16T21:05:32.771Z,13.00
2019-05-16T21:10:43.121Z,12.90
2019-05-16T21:15:51.743Z,12.80
2019-05-16T21:20:57.465Z,12.80
2019-05-16T21:26:05.907Z,12.80
2019-05-16T21:31:10.802Z,12.80
2019-05-16T21:36:16.103Z,12.80
2019-05-16T21:41:31.241Z,12.80
2019-05-16T21:46:40.194Z,12.70
2019-05-16T21:51:46.601Z,12.70
2019-05-16T21:56:51.227Z,12.60
2019-05-16T22:01:57.812Z,12.50
2019-05-16T22:07:02.867Z,12.50
2019-05-16T22:12:07.739Z,12.50
2019-05-16T22:17:28.641Z,12.50
2019-05-16T22:22:29.247Z,12.50
2019-05-16T22:27:31.113Z,12.40
2019-05-16T22:32:38.134Z,12.40
2019-05-16T22:37:52.209Z,12.40
2019-05-16T22:42:51.610Z,12.30
2019-05-16T22:47:57.064Z,12.20
2019-05-16T22:53:02.381Z,12.20
2019-05-16T22:58:09.847Z,12.10
2019-05-16T23:03:14.536Z,12.10
2019-05-16T23:08:23.796Z,12.00
2019-05-16T23:13:28.528Z,11.90
2019-05-16T23:18:33.378Z,11.80
2019-05-16T23:23:39.570Z,11.80
2019-05-16T23:28:47.443Z,11.80
2019-05-16T23:33:52.087Z,11.80
2019-05-16T23:38:57.385Z,11.90
2019-05-16T23:44:04.067Z,11.80
2019-05-16T23:54:11.421Z,11.70
2019-05-16T23:59:17.221Z,11.80
